To NAV CANADA Home Page Login to a new session Search on AWWS site Feedback and Comments Disclaimer Vers la page française équivalente Tips FAQ What's new on the site To the Forecasts and Observations / NOTAM section To "File a Flight Plan" website Publications and other links Update of the User's profile FIC Telephone Numbers My Weather Data Folder Route Weather Data Regional Weather Data Local Weather Data To the Forecasts and Observations / NOTAM section
Request Generated 09/04/2015 at 03:43:07 UTC . Weather information available at that time is displayed.

METAR/TAF

ISLAND LAKE/MB    

METAR CYIV 040300Z 12003KT 15SM FEW050 BKN250 20/19 A2975 RMK SC2CI3
SLP077 DENSITY ALT 1600FT=
METAR CYIV 040200Z 08002KT 15SM SCT060 BKN080 BKN250 20/19 A2976 RMK
SC3AC2CI1 SLP081 DENSITY ALT 1700FT=
METAR CYIV 040100Z 14006KT 060V150 15SM SCT060 BKN080 OVC250 20/19
A2975 RMK SC4AC2CI2 SLP076 DENSITY ALT 1700FT=

TAF AMD CYIV 040254Z 0402/0413 VRB03KT P6SM BKN070 TEMPO 0402/0408
P6SM -SHRA BKN050
FM040800 VRB03KT P6SM BKN030 TEMPO 0408/0413 P6SM -SHRA OVC020
PROB40 0408/0413 VRB15G25KT 5SM TSRA BKN020 OVC030CB
RMK NXT FCST BY 040700Z=
Your time UTC time
Weather data provided by Environment Canada and NAV CANADA